Terminal Aerodrome Forecast
Issued by NWS

Home | Current Version | Previous Version | Text Only | Print | Product List | Glossary On
Versions: 1 2 3 4 5 6 7 8 9 10 11 12 13 14 15 16 17 18 19 20 21 22 23 24 25 26 27 28 29 30 31 32 33 34 35 36 37 38
000
FTUS43 KGLD 252055 AAC
TAFMCK
TAF AMD
KMCK 252055Z 2521/2618 02012KT P6SM OVC015
     FM252200 03015KT P6SM BKN035
     FM260000 36015KT P6SM BKN025
     FM260700 34017G25KT P6SM OVC045
     FM261400 33016KT P6SM SCT050=

USA.gov is the U.S. government's official web portal to all federal, state and local government web resources and services.